Time;durP1;ratioP1;P1;durP2;ratioP2;P2;SDS_P1;SDS_P2;PMS_P1;PMS_P2;Temp;Humidity;BMP_temperature;BMP_pressure;BME280_temperature;BME280_humidity;BME280_pressure;Samples;Min_cycle;Max_cycle;Signal;HPM_P1;HPM_P2
2023/05/05 00:02:10;;;;;;;0.00;0.00;;;12.00;96.40;;;;;;5014884;28;20021;-73
2023/05/05 00:04:35;;;;;;;0.20;0.20;;;12.00;96.80;;;;;;5017942;28;20013;-73
2023/05/05 00:07:02;;;;;;;0.00;0.00;;;12.00;96.60;;;;;;5008617;28;20558;-74
2023/05/05 00:09:28;;;;;;;0.00;0.00;;;11.90;96.50;;;;;;5018651;28;20048;-73
2023/05/05 00:11:54;;;;;;;0.20;0.17;;;11.90;96.60;;;;;;5013006;28;20025;-74
2023/05/05 00:14:20;;;;;;;0.00;0.00;;;11.90;96.80;;;;;;5012285;28;20682;-74
2023/05/05 00:16:46;;;;;;;0.00;0.00;;;11.90;96.60;;;;;;5017029;28;20299;-75
2023/05/05 00:19:15;;;;;;;0.00;0.00;;;11.90;96.70;;;;;;5011865;28;20364;-74
2023/05/05 00:21:47;;;;;;;0.00;0.00;;;11.90;96.90;;;;;;5017354;28;20021;-75
2023/05/05 00:24:15;;;;;;;0.00;0.00;;;11.80;97.70;;;;;;5011440;28;20034;-74
2023/05/05 00:26:40;;;;;;;0.00;0.00;;;11.80;98.00;;;;;;5015482;28;20042;-75
2023/05/05 00:29:06;;;;;;;1.27;0.33;;;11.70;98.20;;;;;;5028111;28;20110;-74
2023/05/05 00:31:35;;;;;;;0.00;0.00;;;11.70;98.10;;;;;;5015163;28;20025;-73
2023/05/05 00:34:02;;;;;;;0.00;0.00;;;11.60;98.40;;;;;;5011086;28;20018;-74
2023/05/05 00:36:28;;;;;;;0.00;0.00;;;11.50;98.60;;;;;;5011198;28;20045;-74
2023/05/05 00:39:00;;;;;;;0.00;0.00;;;11.60;99.20;;;;;;5016083;28;20033;-76
2023/05/05 00:41:25;;;;;;;0.00;0.00;;;11.50;99.20;;;;;;5014966;28;20030;-74
2023/05/05 00:43:53;;;;;;;0.00;0.00;;;11.50;99.70;;;;;;5010378;28;20494;-74
2023/05/05 00:46:25;;;;;;;0.00;0.00;;;11.40;99.90;;;;;;5015091;28;20093;-74
2023/05/05 00:48:51;;;;;;;0.00;0.00;;;11.30;99.90;;;;;;5011872;28;20021;-74
2023/05/05 00:51:24;;;;;;;0.00;0.00;;;11.30;99.90;;;;;;5012521;28;20049;-74
2023/05/05 00:53:51;;;;;;;0.00;0.00;;;11.20;99.90;;;;;;5014449;28;20037;-74
2023/05/05 00:56:20;;;;;;;0.20;0.20;;;11.20;99.90;;;;;;5011577;28;20075;-74
2023/05/05 00:58:46;;;;;;;0.00;0.00;;;11.20;99.90;;;;;;5021023;28;20025;-74
2023/05/05 01:01:12;;;;;;;0.00;0.00;;;11.20;99.90;;;;;;5018948;28;20034;-74
2023/05/05 01:03:42;;;;;;;0.07;0.07;;;11.10;99.90;;;;;;5009545;28;20542;-74
2023/05/05 01:06:28;;;;;;;0.00;0.00;;;11.10;99.90;;;;;;5010846;28;20011;-74
2023/05/05 01:09:03;;;;;;;0.00;0.00;;;11.10;99.90;;;;;;5008759;28;20508;-75
2023/05/05 01:11:57;;;;;;;0.00;0.00;;;11.10;99.90;;;;;;5013078;28;20025;-74
2023/05/05 01:14:39;;;;;;;0.00;0.00;;;11.00;99.90;;;;;;5009853;28;20484;-74
2023/05/05 01:17:23;;;;;;;0.20;0.20;;;11.00;99.90;;;;;;5010045;28;20112;-74
2023/05/05 01:20:01;;;;;;;0.00;0.00;;;11.00;99.90;;;;;;5030357;28;20025;-75
2023/05/05 01:22:53;;;;;;;0.00;0.00;;;11.00;99.90;;;;;;5011530;28;20508;-74
2023/05/05 01:25:34;;;;;;;0.00;0.00;;;11.00;99.90;;;;;;5005054;28;20758;-74
2023/05/05 01:28:18;;;;;;;0.00;0.00;;;11.00;99.90;;;;;;5015261;28;20029;-74
2023/05/05 01:31:02;;;;;;;0.00;0.00;;;11.00;99.90;;;;;;5015355;28;20040;-74
2023/05/05 01:33:34;;;;;;;0.08;0.08;;;11.00;99.90;;;;;;5010145;28;20029;-75
2023/05/05 01:36:08;;;;;;;0.00;0.00;;;11.00;99.90;;;;;;5011439;28;20018;-74
2023/05/05 01:38:40;;;;;;;0.00;0.00;;;11.00;99.90;;;;;;5008541;28;20045;-74
2023/05/05 01:41:24;;;;;;;0.00;0.00;;;11.20;99.90;;;;;;5016804;28;20025;-74
2023/05/05 01:43:51;;;;;;;0.25;0.17;;;11.10;99.90;;;;;;5012185;28;20033;-74
2023/05/05 01:46:20;;;;;;;0.00;0.00;;;11.10;99.90;;;;;;5024980;28;20017;-74
2023/05/05 01:48:47;;;;;;;0.00;0.00;;;11.00;99.90;;;;;;5028463;28;20546;-74
2023/05/05 01:51:16;;;;;;;0.00;0.00;;;11.00;99.90;;;;;;5016105;28;20130;-74
2023/05/05 01:53:45;;;;;;;0.00;0.00;;;11.00;99.90;;;;;;5015583;28;20056;-74
2023/05/05 01:56:14;;;;;;;0.00;0.00;;;11.00;99.90;;;;;;5010974;28;20064;-74
2023/05/05 01:58:43;;;;;;;0.52;0.00;;;11.00;99.90;;;;;;5014669;28;20022;-73
2023/05/05 02:01:12;;;;;;;0.00;0.00;;;11.00;99.90;;;;;;5006269;28;20080;-74
2023/05/05 02:03:39;;;;;;;0.00;0.00;;;11.00;99.90;;;;;;5025402;28;20021;-74
2023/05/05 02:06:07;;;;;;;0.00;0.00;;;11.00;99.90;;;;;;5008117;28;20290;-74
2023/05/05 02:08:36;;;;;;;0.45;0.38;;;11.00;99.90;;;;;;5008861;28;20470;-74
2023/05/05 02:11:05;;;;;;;0.00;0.00;;;11.10;99.90;;;;;;5017827;28;20021;-74
2023/05/05 02:13:36;;;;;;;0.00;0.00;;;11.00;99.90;;;;;;5014490;28;20475;-74
2023/05/05 02:16:04;;;;;;;0.00;0.00;;;11.00;99.90;;;;;;5008300;28;20502;-74
2023/05/05 02:18:34;;;;;;;0.00;0.00;;;11.00;99.90;;;;;;5015984;28;20017;-74
2023/05/05 02:21:02;;;;;;;0.00;0.00;;;10.90;99.90;;;;;;5031366;28;20018;-73
2023/05/05 02:23:29;;;;;;;0.00;0.00;;;10.90;99.90;;;;;;5009065;28;20045;-74
2023/05/05 02:26:04;;;;;;;0.00;0.00;;;10.80;99.90;;;;;;5011909;28;20456;-73
2023/05/05 02:28:56;;;;;;;0.00;0.00;;;10.80;99.90;;;;;;5014705;28;20022;-74
2023/05/05 02:31:24;;;;;;;0.00;0.00;;;10.70;99.90;;;;;;5003679;28;20056;-74
2023/05/05 02:33:57;;;;;;;0.00;0.00;;;10.70;99.90;;;;;;5013888;28;20486;-74
2023/05/05 02:36:28;;;;;;;0.00;0.00;;;10.70;99.90;;;;;;5012093;28;20033;-74
2023/05/05 02:38:57;;;;;;;0.00;0.00;;;10.70;99.90;;;;;;5009588;28;20037;-74
2023/05/05 02:41:25;;;;;;;0.00;0.00;;;10.60;99.90;;;;;;5013656;28;20021;-74
2023/05/05 02:43:53;;;;;;;0.00;0.00;;;10.60;99.90;;;;;;5009900;28;20029;-74
2023/05/05 02:46:20;;;;;;;0.00;0.00;;;10.60;99.90;;;;;;5021828;28;20028;-74
2023/05/05 02:48:48;;;;;;;0.00;0.00;;;10.60;99.90;;;;;;5008356;28;20116;-74
2023/05/05 02:51:15;;;;;;;0.00;0.00;;;10.60;99.90;;;;;;5009845;28;20104;-74
2023/05/05 02:53:41;;;;;;;0.00;0.00;;;10.60;99.90;;;;;;5012500;28;20036;-74
2023/05/05 02:56:20;;;;;;;0.00;0.00;;;10.60;99.90;;;;;;5009855;28;20025;-74
2023/05/05 02:59:13;;;;;;;0.00;0.00;;;10.60;99.90;;;;;;5008356;28;20026;-74
2023/05/05 03:02:06;;;;;;;0.00;0.00;;;10.50;99.90;;;;;;5030519;28;20022;-74
2023/05/05 03:05:12;;;;;;;0.00;0.00;;;10.60;99.90;;;;;;5013315;28;20037;-75
2023/05/05 03:07:53;;;;;;;0.10;0.10;;;10.50;99.90;;;;;;5033208;28;20028;-75
2023/05/05 03:10:26;;;;;;;0.00;0.00;;;10.50;99.90;;;;;;5011467;28;20029;-75
2023/05/05 03:12:55;;;;;;;0.20;0.10;;;10.60;99.90;;;;;;5032719;28;20110;-75
2023/05/05 03:15:34;;;;;;;0.00;0.00;;;10.50;99.90;;;;;;5025795;28;20382;-75
2023/05/05 03:18:10;;;;;;;0.00;0.00;;;10.50;99.90;;;;;;5013874;28;20029;-76
2023/05/05 03:20:39;;;;;;;0.00;0.00;;;10.40;99.90;;;;;;5012536;28;20120;-75
2023/05/05 03:23:06;;;;;;;0.00;0.00;;;10.40;99.90;;;;;;5035443;28;20021;-75
2023/05/05 03:25:46;;;;;;;0.00;0.00;;;10.40;99.90;;;;;;5013337;28;20018;-75
2023/05/05 03:28:15;;;;;;;0.00;0.00;;;10.30;99.90;;;;;;5012186;28;20059;-75
2023/05/05 03:30:43;;;;;;;0.00;0.00;;;10.30;99.90;;;;;;5009218;28;20036;-75
2023/05/05 03:33:10;;;;;;;0.00;0.00;;;10.30;99.90;;;;;;5009504;28;20615;-75
2023/05/05 03:35:39;;;;;;;0.00;0.00;;;10.30;99.90;;;;;;5017205;28;20484;-75
2023/05/05 03:38:06;;;;;;;0.00;0.00;;;10.30;99.90;;;;;;5013575;28;20057;-75
2023/05/05 03:40:33;;;;;;;;;;;10.20;99.90;;;;;;5017335;28;20041;-75
2023/05/05 03:42:59;;;;;;;0.00;0.00;;;10.20;99.90;;;;;;5013095;28;19912;-74
2023/05/05 03:45:27;;;;;;;0.00;0.00;;;10.20;99.90;;;;;;5020482;28;20022;-74
2023/05/05 03:47:54;;;;;;;0.00;0.00;;;10.30;99.90;;;;;;5017066;28;20032;-74
2023/05/05 03:50:21;;;;;;;0.00;0.00;;;10.20;99.90;;;;;;5016495;28;20021;-74
2023/05/05 03:52:47;;;;;;;0.30;0.30;;;10.30;99.90;;;;;;5010730;28;20021;-74
2023/05/05 03:55:14;;;;;;;;;;;10.30;99.90;;;;;;5031309;28;20651;-74
2023/05/05 03:57:40;;;;;;;0.00;0.00;;;10.30;99.90;;;;;;5031451;28;19940;-74
2023/05/05 04:00:10;;;;;;;0.10;0.10;;;10.30;99.90;;;;;;5017161;28;20767;-74
2023/05/05 04:02:42;;;;;;;0.45;0.45;;;10.30;99.90;;;;;;5015195;28;20268;-74
2023/05/05 04:05:19;;;;;;;0.00;0.00;;;10.30;99.90;;;;;;5013113;28;20029;-74
2023/05/05 04:07:45;;;;;;;0.00;0.00;;;10.50;99.90;;;;;;5031350;28;20478;-74
2023/05/05 04:10:11;;;;;;;;;;;10.50;99.90;;;;;;5011564;28;21094;-73
2023/05/05 04:12:37;;;;;;;0.00;0.00;;;10.50;99.90;;;;;;5029786;28;19916;-74
2023/05/05 04:15:03;;;;;;;0.00;0.00;;;10.50;99.90;;;;;;5012917;28;20018;-74
2023/05/05 04:17:30;;;;;;;0.00;0.00;;;10.60;99.90;;;;;;5010811;28;20034;-74
2023/05/05 04:19:57;;;;;;;0.00;0.00;;;10.70;99.90;;;;;;5012413;28;20033;-74
2023/05/05 04:22:23;;;;;;;;;;;10.90;99.90;;;;;;5014000;28;20021;-75
2023/05/05 04:24:49;;;;;;;0.00;0.00;;;11.00;99.90;;;;;;5004102;28;20007;-73
2023/05/05 04:27:15;;;;;;;0.00;0.00;;;11.20;99.90;;;;;;5013898;28;20024;-73
2023/05/05 04:29:41;;;;;;;0.33;0.10;;;11.40;99.90;;;;;;5006027;28;20022;-73
2023/05/05 04:32:07;;;;;;;;;;;11.60;99.90;;;;;;5009837;28;20087;-73
2023/05/05 04:34:33;;;;;;;0.00;0.00;;;11.70;99.90;;;;;;5008543;28;20379;-73
2023/05/05 04:36:58;;;;;;;0.00;0.00;;;11.90;99.90;;;;;;5003523;28;20042;-73
2023/05/05 04:39:24;;;;;;;0.00;0.00;;;12.10;99.90;;;;;;5016664;28;20071;-72
2023/05/05 04:41:50;;;;;;;0.00;0.00;;;12.30;99.90;;;;;;5008079;28;20030;-73
2023/05/05 04:44:15;;;;;;;0.00;0.00;;;12.50;99.90;;;;;;5011618;28;20029;-73
2023/05/05 04:46:41;;;;;;;0.00;0.00;;;12.70;99.90;;;;;;5009314;28;20031;-72
2023/05/05 04:49:08;;;;;;;0.00;0.00;;;12.70;99.90;;;;;;5012657;28;20032;-73
2023/05/05 04:51:34;;;;;;;0.90;0.52;;;12.80;99.90;;;;;;5005111;28;20022;-73
2023/05/05 04:54:00;;;;;;;;;;;12.90;99.90;;;;;;5008717;28;20029;-73
2023/05/05 04:56:30;;;;;;;0.00;0.00;;;13.00;99.90;;;;;;5012768;28;20480;-73
2023/05/05 04:58:55;;;;;;;0.00;0.00;;;13.30;99.90;;;;;;5018729;28;20118;-72
2023/05/05 05:01:21;;;;;;;0.00;0.00;;;13.40;99.90;;;;;;5008467;28;20420;-73
2023/05/05 05:03:48;;;;;;;0.53;0.53;;;13.30;99.90;;;;;;5012329;28;20026;-72
2023/05/05 05:06:15;;;;;;;0.00;0.00;;;13.10;99.90;;;;;;5007326;28;20025;-73
2023/05/05 05:08:42;;;;;;;0.00;0.00;;;13.10;99.90;;;;;;5009295;28;20022;-72
2023/05/05 05:11:07;;;;;;;;;;;13.10;99.90;;;;;;5011365;28;20479;-72
2023/05/05 05:13:33;;;;;;;0.00;0.00;;;13.00;99.90;;;;;;5009194;28;19995;-72
2023/05/05 05:16:00;;;;;;;0.00;0.00;;;13.30;99.90;;;;;;5023043;28;20092;-73
2023/05/05 05:18:27;;;;;;;0.00;0.00;;;13.60;99.90;;;;;;5010923;28;20066;-73
2023/05/05 05:20:52;;;;;;;4.05;0.10;;;13.80;99.90;;;;;;5024184;28;20091;-73
2023/05/05 05:23:18;;;;;;;0.00;0.00;;;13.90;99.90;;;;;;5023693;28;20018;-73
2023/05/05 05:25:48;;;;;;;0.00;0.00;;;14.10;99.90;;;;;;5009394;28;20030;-73
2023/05/05 05:28:13;;;;;;;0.00;0.00;;;14.20;99.90;;;;;;5011450;28;20037;-73
2023/05/05 05:30:40;;;;;;;0.00;0.00;;;14.10;99.90;;;;;;5007629;28;20352;-73
2023/05/05 05:33:06;;;;;;;0.00;0.00;;;14.10;99.90;;;;;;5013378;28;20486;-73
2023/05/05 05:35:32;;;;;;;0.00;0.00;;;14.00;99.90;;;;;;5012060;28;20416;-73
2023/05/05 05:37:58;;;;;;;;;;;14.00;99.90;;;;;;5008110;28;20033;-78
2023/05/05 05:40:25;;;;;;;0.00;0.00;;;14.20;99.90;;;;;;5012484;28;19916;-77
2023/05/05 05:42:58;;;;;;;;;;;14.40;99.90;;;;;;5009833;28;20021;-78
2023/05/05 05:45:24;;;;;;;0.00;0.00;;;14.30;99.90;;;;;;5030694;28;19916;-73
2023/05/05 05:47:51;;;;;;;0.20;0.10;;;14.80;99.90;;;;;;5022984;28;20029;-73
2023/05/05 05:50:16;;;;;;;0.00;0.00;;;15.50;98.60;;;;;;5013954;28;20021;-73
2023/05/05 05:52:43;;;;;;;0.00;0.00;;;15.90;97.50;;;;;;5003817;28;20857;-73
2023/05/05 05:55:09;;;;;;;0.00;0.00;;;16.40;96.40;;;;;;5007826;28;20433;-73
2023/05/05 05:57:34;;;;;;;0.00;0.00;;;16.70;95.40;;;;;;5007499;28;20024;-73
2023/05/05 06:00:00;;;;;;;0.00;0.00;;;17.00;95.00;;;;;;5008026;28;20289;-74
2023/05/05 06:02:26;;;;;;;0.00;0.00;;;17.70;93.60;;;;;;5007100;28;20229;-73
2023/05/05 06:04:52;;;;;;;0.00;0.00;;;18.10;92.50;;;;;;5011566;28;20024;-73
2023/05/05 06:07:18;;;;;;;0.10;0.10;;;18.60;91.50;;;;;;5023706;28;20025;-73
2023/05/05 06:09:44;;;;;;;0.00;0.00;;;18.50;91.10;;;;;;5012478;28;20029;-73
2023/05/05 06:12:09;;;;;;;0.00;0.00;;;18.70;90.40;;;;;;5011970;28;20034;-74
2023/05/05 06:14:35;;;;;;;0.00;0.00;;;18.80;90.00;;;;;;5001854;28;20026;-74
2023/05/05 06:17:01;;;;;;;0.00;0.00;;;19.50;86.60;;;;;;5031850;28;20125;-71
2023/05/05 06:19:26;;;;;;;0.22;0.10;;;19.80;85.30;;;;;;5010289;28;20033;-71
2023/05/05 06:21:53;;;;;;;0.30;0.30;;;20.70;83.40;;;;;;5006551;28;20029;-72
2023/05/05 06:24:18;;;;;;;0.00;0.00;;;20.30;78.70;;;;;;5006571;28;20097;-73
2023/05/05 06:26:44;;;;;;;0.05;0.05;;;20.30;80.00;;;;;;5007250;28;20025;-73
2023/05/05 06:29:10;;;;;;;0.00;0.00;;;21.00;77.40;;;;;;5010364;28;20025;-73
2023/05/05 06:31:35;;;;;;;0.00;0.00;;;21.30;75.60;;;;;;5024906;28;20041;-73
2023/05/05 06:34:01;;;;;;;0.15;0.15;;;21.50;74.80;;;;;;5015954;28;20028;-73
2023/05/05 06:36:27;;;;;;;0.08;0.08;;;20.40;76.40;;;;;;5009169;28;20044;-73
2023/05/05 06:38:54;;;;;;;0.00;0.00;;;21.10;75.60;;;;;;5007678;28;20056;-73
2023/05/05 06:41:20;;;;;;;0.00;0.00;;;21.10;74.90;;;;;;5007326;28;20105;-73
2023/05/05 06:43:46;;;;;;;0.00;0.00;;;21.20;75.80;;;;;;5014877;28;20033;-73
2023/05/05 06:46:13;;;;;;;0.10;0.10;;;21.20;74.30;;;;;;5013885;28;20029;-73
2023/05/05 06:48:38;;;;;;;0.00;0.00;;;21.80;73.70;;;;;;5007026;28;20072;-74
2023/05/05 06:51:05;;;;;;;0.00;0.00;;;23.20;70.80;;;;;;5013279;28;20053;-73
2023/05/05 06:53:37;;;;;;;0.05;0.00;;;24.60;66.00;;;;;;5005527;28;20352;-74
2023/05/05 06:56:02;;;;;;;0.15;0.15;;;25.60;62.60;;;;;;5015789;28;20025;-73
2023/05/05 06:58:28;;;;;;;;;;;24.40;64.10;;;;;;5012934;28;20042;-73
2023/05/05 07:00:55;;;;;;;0.00;0.00;;;23.70;65.70;;;;;;5010970;28;20243;-73
2023/05/05 07:03:22;;;;;;;0.00;0.00;;;24.50;64.00;;;;;;5008402;28;20021;-73
2023/05/05 07:05:52;;;;;;;0.00;0.00;;;23.90;63.60;;;;;;5010185;28;20032;-73
2023/05/05 07:08:18;;;;;;;0.20;0.20;;;22.60;65.30;;;;;;5022988;28;20028;-75
2023/05/05 07:10:43;;;;;;;0.65;0.32;;;22.20;66.10;;;;;;5024252;28;20029;-75
2023/05/05 07:13:09;;;;;;;0.00;0.00;;;22.30;66.30;;;;;;5015795;28;20052;-73
2023/05/05 07:15:35;;;;;;;;;;;24.10;63.90;;;;;;5009984;28;20032;-73
2023/05/05 07:18:00;;;;;;;0.28;0.20;;;26.20;60.50;;;;;;5016275;28;19920;-73
2023/05/05 07:20:27;;;;;;;;;;;26.30;58.80;;;;;;5009586;28;20034;-73
2023/05/05 07:22:53;;;;;;;0.28;0.28;;;26.20;58.90;;;;;;5032540;28;19905;-73
2023/05/05 07:25:18;;;;;;;;;;;27.30;56.90;;;;;;5011381;28;20070;-73
2023/05/05 07:27:44;;;;;;;0.03;0.03;;;27.20;56.40;;;;;;5011246;28;20306;-74
2023/05/05 07:30:10;;;;;;;0.00;0.00;;;26.80;55.60;;;;;;5031909;28;20092;-73
2023/05/05 07:32:36;;;;;;;1.00;0.30;;;28.60;54.70;;;;;;5010096;28;20033;-71
2023/05/05 07:35:01;;;;;;;0.03;0.03;;;29.40;52.50;;;;;;5016365;28;20017;-71
2023/05/05 07:37:28;;;;;;;0.38;0.38;;;29.70;51.40;;;;;;5011653;28;20041;-71
2023/05/05 07:39:53;;;;;;;0.00;0.00;;;31.00;50.40;;;;;;5010498;28;20475;-71
2023/05/05 07:42:19;;;;;;;0.20;0.20;;;30.50;50.50;;;;;;5015813;28;20036;-73
2023/05/05 07:44:47;;;;;;;0.50;0.38;;;30.10;49.60;;;;;;5012401;28;20014;-73
2023/05/05 07:47:13;;;;;;;0.30;0.30;;;27.40;51.10;;;;;;5012342;28;20139;-73
2023/05/05 07:49:38;;;;;;;;;;;24.80;54.80;;;;;;5013833;28;20112;-73
2023/05/05 07:52:04;;;;;;;0.00;0.00;;;24.00;56.70;;;;;;5015314;28;19905;-73
2023/05/05 07:54:30;;;;;;;;;;;25.30;55.70;;;;;;5028308;28;20041;-73
2023/05/05 07:56:56;;;;;;;0.00;0.00;;;26.70;54.40;;;;;;5032802;28;19909;-73
2023/05/05 07:59:22;;;;;;;0.00;0.00;;;28.40;52.60;;;;;;5016083;28;20022;-73
2023/05/05 08:01:50;;;;;;;0.15;0.15;;;28.80;51.60;;;;;;5011574;28;20025;-70
2023/05/05 08:04:15;;;;;;;0.00;0.00;;;30.50;50.20;;;;;;5009267;28;20056;-71
2023/05/05 08:06:41;;;;;;;0.00;0.00;;;30.90;48.90;;;;;;5008535;28;21449;-74
2023/05/05 08:09:06;;;;;;;0.35;0.20;;;31.10;48.60;;;;;;5010892;28;20018;-74
2023/05/05 08:11:32;;;;;;;0.00;0.00;;;29.70;48.70;;;;;;5004663;28;20033;-73
2023/05/05 08:13:58;;;;;;;0.00;0.00;;;27.00;51.60;;;;;;5024013;28;20113;-73
2023/05/05 08:16:23;;;;;;;0.10;0.10;;;26.40;52.70;;;;;;5028988;28;20022;-72
2023/05/05 08:18:49;;;;;;;0.00;0.00;;;26.30;53.40;;;;;;5009753;28;20026;-73
2023/05/05 08:21:15;;;;;;;0.20;0.20;;;26.40;53.00;;;;;;5010415;28;20030;-78
2023/05/05 08:23:40;;;;;;;0.30;0.30;;;27.60;51.70;;;;;;5020815;28;20029;-78
2023/05/05 08:26:08;;;;;;;0.00;0.00;;;27.90;51.80;;;;;;5011337;28;20064;-78
2023/05/05 08:28:41;;;;;;;0.00;0.00;;;28.40;51.00;;;;;;5013610;28;20037;-79
2023/05/05 08:31:08;;;;;;;0.00;0.00;;;27.90;51.30;;;;;;5012585;28;20018;-79
2023/05/05 08:33:35;;;;;;;0.00;0.00;;;27.30;51.70;;;;;;5035578;28;20057;-77
2023/05/05 08:36:04;;;;;;;0.08;0.08;;;27.90;51.00;;;;;;5012479;28;20115;-79
2023/05/05 08:38:29;;;;;;;0.00;0.00;;;29.00;50.60;;;;;;5016791;28;20040;-77
2023/05/05 08:40:55;;;;;;;;;;;27.40;51.20;;;;;;5039365;28;20153;-80
2023/05/05 08:43:22;;;;;;;0.00;0.00;;;26.40;52.00;;;;;;5007599;28;19905;-74
2023/05/05 08:45:50;;;;;;;0.00;0.00;;;26.20;53.20;;;;;;5032372;28;20643;-74
2023/05/05 08:48:19;;;;;;;0.05;0.00;;;26.70;52.50;;;;;;5014820;28;20527;-73
2023/05/05 08:50:54;;;;;;;0.17;0.08;;;26.00;52.90;;;;;;5010081;28;20021;-74
2023/05/05 08:53:34;;;;;;;0.00;0.00;;;27.30;53.00;;;;;;5010782;28;20048;-74
2023/05/05 08:56:02;;;;;;;0.20;0.20;;;27.60;51.30;;;;;;5008485;28;20022;-74
2023/05/05 08:58:30;;;;;;;0.13;0.13;;;26.80;53.20;;;;;;5014267;28;20034;-73
2023/05/05 09:00:56;;;;;;;0.13;0.10;;;27.50;52.50;;;;;;5004565;28;20037;-73
2023/05/05 09:03:25;;;;;;;0.05;0.05;;;27.90;51.30;;;;;;5012075;28;20020;-74
2023/05/05 09:05:52;;;;;;;0.10;0.10;;;28.70;51.30;;;;;;5007145;28;20100;-74
2023/05/05 09:08:18;;;;;;;0.65;0.10;;;27.30;51.70;;;;;;5005748;28;20030;-73
2023/05/05 09:10:44;;;;;;;0.00;0.00;;;27.20;52.90;;;;;;5018554;28;20064;-74
2023/05/05 09:13:12;;;;;;;0.08;0.00;;;27.30;52.90;;;;;;5005255;28;20026;-72
2023/05/05 09:15:40;;;;;;;0.20;0.15;;;28.50;51.70;;;;;;5014326;28;20148;-73
2023/05/05 09:18:08;;;;;;;0.00;0.00;;;28.80;50.50;;;;;;5005406;28;20030;-73
2023/05/05 09:20:35;;;;;;;0.00;0.00;;;27.80;51.50;;;;;;5015068;28;20037;-72
2023/05/05 09:23:13;;;;;;;0.22;0.22;;;27.80;52.70;;;;;;5007958;28;20072;-74
2023/05/05 09:25:40;;;;;;;0.10;0.10;;;27.90;53.30;;;;;;5004148;28;20033;-73
2023/05/05 09:28:11;;;;;;;0.03;0.00;;;29.10;51.70;;;;;;5011397;28;20775;-73
2023/05/05 09:30:39;;;;;;;0.03;0.03;;;30.20;50.20;;;;;;5009266;28;20526;-73
2023/05/05 09:33:06;;;;;;;0.00;0.00;;;31.20;49.80;;;;;;5006986;28;20171;-73
2023/05/05 09:35:53;;;;;;;0.00;0.00;;;30.90;49.20;;;;;;5006963;28;20022;-73
2023/05/05 09:38:20;;;;;;;;;;;27.50;51.80;;;;;;5012947;28;20064;-73
2023/05/05 09:40:49;;;;;;;1.17;0.32;;;27.10;54.00;;;;;;5007481;28;20035;-73
2023/05/05 09:43:17;;;;;;;0.00;0.00;;;28.60;51.90;;;;;;5006363;28;20017;-73
2023/05/05 09:45:44;;;;;;;0.00;0.00;;;29.80;51.60;;;;;;5016309;28;20022;-73
2023/05/05 09:48:32;;;;;;;0.47;0.00;;;31.10;49.90;;;;;;5011216;28;20104;-71
2023/05/05 09:50:58;;;;;;;0.28;0.28;;;33.30;48.00;;;;;;5005779;28;20044;-73
2023/05/05 09:53:25;;;;;;;0.05;0.05;;;35.00;46.60;;;;;;5011988;28;20025;-73
2023/05/05 09:55:57;;;;;;;0.28;0.17;;;34.70;45.70;;;;;;5001521;28;20022;-73
2023/05/05 09:58:30;;;;;;;0.03;0.03;;;30.70;47.80;;;;;;5010962;28;20649;-73
2023/05/05 10:01:00;;;;;;;0.15;0.15;;;30.60;48.40;;;;;;5009272;28;20717;-73
2023/05/05 10:03:26;;;;;;;0.47;0.10;;;30.80;48.90;;;;;;5006399;28;20048;-73
2023/05/05 10:05:57;;;;;;;0.10;0.10;;;31.70;49.30;;;;;;5025708;28;20025;-73
2023/05/05 10:08:30;;;;;;;0.00;0.00;;;32.30;48.40;;;;;;5009451;28;20017;-73
2023/05/05 10:10:59;;;;;;;0.00;0.00;;;34.20;46.80;;;;;;5010198;28;20035;-74
2023/05/05 10:13:26;;;;;;;0.00;0.00;;;35.10;45.20;;;;;;5014697;28;20026;-73
2023/05/05 10:15:54;;;;;;;0.45;0.10;;;33.40;46.10;;;;;;5012941;28;20022;-73
2023/05/05 10:18:27;;;;;;;0.03;0.03;;;31.60;47.70;;;;;;5011747;28;20018;-74
2023/05/05 10:20:58;;;;;;;0.00;0.00;;;31.90;49.10;;;;;;5009289;28;20029;-73
2023/05/05 10:23:34;;;;;;;0.28;0.28;;;31.10;48.70;;;;;;5010889;28;20565;-73
2023/05/05 10:26:05;;;;;;;0.57;0.57;;;30.30;49.50;;;;;;5011093;28;20025;-73
2023/05/05 10:28:35;;;;;;;1.27;0.30;;;28.70;51.00;;;;;;5009730;28;20029;-80
2023/05/05 10:31:04;;;;;;;0.05;0.05;;;29.70;51.00;;;;;;5011767;28;20028;-79
2023/05/05 10:33:46;;;;;;;0.10;0.10;;;30.50;50.50;;;;;;5009168;28;20025;-78
2023/05/05 10:36:15;;;;;;;0.00;0.00;;;30.60;49.70;;;;;;5009461;28;20033;-78
2023/05/05 10:38:45;;;;;;;0.08;0.00;;;32.50;49.60;;;;;;5014923;28;20064;-77
2023/05/05 10:41:17;;;;;;;0.25;0.20;;;33.70;47.30;;;;;;5015455;28;20052;-76
2023/05/05 10:43:46;;;;;;;0.00;0.00;;;35.00;47.40;;;;;;5011235;28;20029;-76
2023/05/05 10:46:17;;;;;;;1.05;0.20;;;34.70;45.90;;;;;;5015972;28;20026;-75
2023/05/05 10:49:22;;;;;;;0.38;0.28;;;35.70;45.70;;;;;;5010652;28;21120;-77
2023/05/05 10:52:22;;;;;;;0.20;0.10;;;34.30;45.80;;;;;;5008319;28;20494;-77
2023/05/05 10:55:28;;;;;;;0.00;0.00;;;34.00;46.50;;;;;;5011973;28;20687;-77
2023/05/05 10:57:54;;;;;;;0.00;0.00;;;32.90;46.90;;;;;;5013921;28;20080;-75
2023/05/05 11:00:44;;;;;;;0.10;0.10;;;30.70;48.20;;;;;;5010001;28;20036;-75
2023/05/05 11:03:20;;;;;;;0.00;0.00;;;29.10;49.90;;;;;;5008866;28;20014;-76
2023/05/05 11:06:07;;;;;;;0.40;0.32;;;27.00;51.20;;;;;;5011286;28;20013;-78
2023/05/05 11:09:20;;;;;;;0.35;0.20;;;25.40;54.80;;;;;;5017026;28;20471;-81
2023/05/05 11:12:08;;;;;;;0.52;0.30;;;23.70;58.20;;;;;;5011512;28;20030;-77
2023/05/05 11:14:34;;;;;;;0.00;0.00;;;23.30;58.70;;;;;;5020046;28;20029;-85
2023/05/05 11:17:52;;;;;;;0.03;0.03;;;22.70;60.10;;;;;;5012110;28;20537;-83
2023/05/05 11:20:42;;;;;;;1.88;0.38;;;23.20;59.80;;;;;;5013383;28;20120;-86
2023/05/05 11:23:33;;;;;;;0.00;0.00;;;23.70;58.80;;;;;;4996714;28;20022;-83
2023/05/05 11:26:03;;;;;;;0.32;0.32;;;23.50;58.40;;;;;;5009861;28;20018;-83
2023/05/05 11:28:30;;;;;;;0.00;0.00;;;22.70;59.70;;;;;;5007503;28;20053;-82
2023/05/05 11:30:56;;;;;;;0.35;0.10;;;22.90;60.50;;;;;;5011063;28;20029;-81
2023/05/05 11:33:35;;;;;;;0.00;0.00;;;23.40;59.60;;;;;;5023346;28;20040;-83
2023/05/05 11:36:38;;;;;;;0.00;0.00;;;23.30;58.10;;;;;;5007950;28;20022;-85
2023/05/05 11:39:48;;;;;;;0.40;0.13;;;23.00;60.20;;;;;;4996276;28;20506;-82
2023/05/05 11:42:29;;;;;;;0.00;0.00;;;23.20;59.50;;;;;;5005728;28;20030;-82
2023/05/05 11:44:57;;;;;;;0.00;0.00;;;23.30;59.20;;;;;;5008967;28;20024;-82
2023/05/05 11:47:27;;;;;;;0.00;0.00;;;23.40;59.20;;;;;;5013950;28;20029;-77
2023/05/05 11:49:55;;;;;;;0.00;0.00;;;23.50;59.00;;;;;;5007325;28;20025;-78
2023/05/05 11:52:24;;;;;;;0.08;0.00;;;23.80;58.20;;;;;;5014978;28;20026;-81
2023/05/05 11:54:51;;;;;;;0.30;0.30;;;23.80;58.20;;;;;;5009037;28;20033;-80
2023/05/05 11:57:29;;;;;;;0.03;0.03;;;23.60;59.50;;;;;;5013562;28;20148;-79
2023/05/05 11:59:57;;;;;;;0.00;0.00;;;23.40;59.30;;;;;;5014745;28;20375;-80
2023/05/05 12:02:26;;;;;;;0.00;0.00;;;23.40;60.20;;;;;;5036736;28;20072;-79
2023/05/05 12:04:58;;;;;;;0.00;0.00;;;23.50;59.30;;;;;;5014770;28;20029;-79
2023/05/05 12:07:30;;;;;;;0.00;0.00;;;23.40;58.10;;;;;;5010131;28;20024;-81
2023/05/05 12:09:56;;;;;;;0.30;0.22;;;23.50;60.40;;;;;;5009666;28;20017;-82
2023/05/05 12:12:39;;;;;;;0.10;0.10;;;23.50;60.00;;;;;;5012244;28;20072;-77
2023/05/05 12:15:06;;;;;;;0.00;0.00;;;23.60;59.90;;;;;;5013310;28;20046;-80
2023/05/05 12:17:42;;;;;;;0.00;0.00;;;23.80;59.10;;;;;;5030904;28;20036;-79
2023/05/05 12:20:09;;;;;;;0.00;0.00;;;23.70;60.00;;;;;;5013640;28;20379;-80
2023/05/05 12:22:35;;;;;;;1.45;0.20;;;23.70;58.80;;;;;;5012217;28;20017;-79
2023/05/05 12:25:09;;;;;;;0.00;0.00;;;23.40;59.60;;;;;;5014834;28;20018;-80
2023/05/05 12:27:38;;;;;;;0.00;0.00;;;23.00;59.90;;;;;;5013211;28;20028;-80
2023/05/05 12:30:22;;;;;;;0.00;0.00;;;22.80;59.90;;;;;;5013858;28;20037;-81
2023/05/05 12:32:49;;;;;;;0.00;0.00;;;23.20;59.90;;;;;;5012316;28;20554;-78
2023/05/05 12:35:16;;;;;;;0.00;0.00;;;23.10;59.80;;;;;;5015753;28;20045;-78
2023/05/05 12:37:52;;;;;;;0.00;0.00;;;23.00;61.20;;;;;;5010183;28;20129;-79
2023/05/05 12:40:51;;;;;;;0.00;0.00;;;23.10;59.50;;;;;;5013214;28;20483;-79
2023/05/05 12:43:31;;;;;;;0.00;0.00;;;23.30;59.90;;;;;;5035209;28;20025;-79
2023/05/05 12:46:07;;;;;;;0.52;0.00;;;23.50;60.20;;;;;;5013947;28;21482;-78
2023/05/05 12:48:38;;;;;;;0.00;0.00;;;23.40;60.00;;;;;;5035916;28;20029;-79
2023/05/05 12:51:12;;;;;;;0.00;0.00;;;23.40;59.70;;;;;;5026315;28;20550;-80
2023/05/05 12:53:41;;;;;;;0.10;0.10;;;23.30;59.30;;;;;;5011885;28;20570;-80
2023/05/05 12:56:36;;;;;;;0.00;0.00;;;23.30;59.30;;;;;;5010854;28;20030;-79
2023/05/05 12:59:04;;;;;;;0.08;0.08;;;23.30;59.00;;;;;;5031261;28;20100;-80
2023/05/05 13:01:32;;;;;;;0.00;0.00;;;23.10;60.20;;;;;;5028568;28;20026;-81
2023/05/05 13:04:26;;;;;;;0.00;0.00;;;22.90;60.20;;;;;;5009056;28;20155;-82
2023/05/05 13:07:14;;;;;;;0.03;0.03;;;22.80;60.00;;;;;;5011558;28;20039;-79
2023/05/05 13:10:09;;;;;;;0.00;0.00;;;22.70;59.60;;;;;;5015398;28;20014;-81